sensor_id;sensor_type;location;lat;lon;timestamp;P1;durP1;ratioP1;P2;durP2;ratioP2
63012;SDS011;62113;45.624;11.700;2024-01-30T00:01:41;56.03;;;29.20;;
63012;SDS011;62113;45.624;11.700;2024-01-30T00:04:06;48.97;;;28.02;;
63012;SDS011;62113;45.624;11.700;2024-01-30T00:06:32;52.42;;;29.50;;
63012;SDS011;62113;45.624;11.700;2024-01-30T00:08:58;59.33;;;33.20;;
63012;SDS011;62113;45.624;11.700;2024-01-30T00:11:23;63.17;;;34.42;;
63012;SDS011;62113;45.624;11.700;2024-01-30T00:13:53;58.50;;;33.65;;
63012;SDS011;62113;45.624;11.700;2024-01-30T00:16:21;62.40;;;32.75;;
63012;SDS011;62113;45.624;11.700;2024-01-30T00:18:49;66.03;;;36.15;;
63012;SDS011;62113;45.624;11.700;2024-01-30T00:21:18;67.07;;;36.83;;
63012;SDS011;62113;45.624;11.700;2024-01-30T00:23:44;61.67;;;34.88;;
63012;SDS011;62113;45.624;11.700;2024-01-30T00:26:10;62.78;;;34.00;;
63012;SDS011;62113;45.624;11.700;2024-01-30T00:28:36;57.20;;;33.07;;
63012;SDS011;62113;45.624;11.700;2024-01-30T00:31:02;51.13;;;31.05;;
63012;SDS011;62113;45.624;11.700;2024-01-30T00:33:29;55.90;;;32.03;;
63012;SDS011;62113;45.624;11.700;2024-01-30T00:35:54;59.72;;;32.85;;
63012;SDS011;62113;45.624;11.700;2024-01-30T00:38:20;54.35;;;30.75;;
63012;SDS011;62113;45.624;11.700;2024-01-30T00:40:46;52.35;;;29.38;;
63012;SDS011;62113;45.624;11.700;2024-01-30T00:43:11;60.85;;;34.25;;
63012;SDS011;62113;45.624;11.700;2024-01-30T00:45:37;52.72;;;29.40;;
63012;SDS011;62113;45.624;11.700;2024-01-30T00:48:02;52.40;;;30.08;;
63012;SDS011;62113;45.624;11.700;2024-01-30T00:50:29;48.45;;;29.15;;
63012;SDS011;62113;45.624;11.700;2024-01-30T00:52:54;51.22;;;28.27;;
63012;SDS011;62113;45.624;11.700;2024-01-30T00:55:20;49.58;;;28.15;;
63012;SDS011;62113;45.624;11.700;2024-01-30T00:57:46;51.72;;;28.55;;
63012;SDS011;62113;45.624;11.700;2024-01-30T01:00:12;45.33;;;26.13;;
63012;SDS011;62113;45.624;11.700;2024-01-30T01:02:40;51.25;;;28.63;;
63012;SDS011;62113;45.624;11.700;2024-01-30T01:05:06;49.30;;;29.23;;
63012;SDS011;62113;45.624;11.700;2024-01-30T01:07:32;56.80;;;29.60;;
63012;SDS011;62113;45.624;11.700;2024-01-30T01:09:57;45.08;;;27.80;;
63012;SDS011;62113;45.624;11.700;2024-01-30T01:12:23;48.05;;;27.75;;
63012;SDS011;62113;45.624;11.700;2024-01-30T01:14:49;51.95;;;27.80;;
63012;SDS011;62113;45.624;11.700;2024-01-30T01:17:14;46.42;;;27.15;;
63012;SDS011;62113;45.624;11.700;2024-01-30T01:19:40;41.75;;;25.48;;
63012;SDS011;62113;45.624;11.700;2024-01-30T01:22:05;46.60;;;25.65;;
63012;SDS011;62113;45.624;11.700;2024-01-30T01:24:31;37.78;;;23.00;;
63012;SDS011;62113;45.624;11.700;2024-01-30T01:26:58;35.67;;;22.30;;
63012;SDS011;62113;45.624;11.700;2024-01-30T01:29:23;35.42;;;23.23;;
63012;SDS011;62113;45.624;11.700;2024-01-30T01:31:58;39.10;;;23.27;;
63012;SDS011;62113;45.624;11.700;2024-01-30T01:34:24;37.92;;;23.35;;
63012;SDS011;62113;45.624;11.700;2024-01-30T01:36:50;35.40;;;22.60;;
63012;SDS011;62113;45.624;11.700;2024-01-30T01:39:16;39.55;;;24.25;;
63012;SDS011;62113;45.624;11.700;2024-01-30T01:41:42;41.87;;;25.67;;
63012;SDS011;62113;45.624;11.700;2024-01-30T01:44:08;40.60;;;24.52;;
63012;SDS011;62113;45.624;11.700;2024-01-30T01:46:34;45.08;;;24.77;;
63012;SDS011;62113;45.624;11.700;2024-01-30T01:49:00;41.33;;;25.23;;
63012;SDS011;62113;45.624;11.700;2024-01-30T01:51:27;40.75;;;23.65;;
63012;SDS011;62113;45.624;11.700;2024-01-30T01:53:56;38.63;;;23.80;;
63012;SDS011;62113;45.624;11.700;2024-01-30T01:56:24;39.53;;;23.95;;
63012;SDS011;62113;45.624;11.700;2024-01-30T01:58:51;44.00;;;25.08;;
63012;SDS011;62113;45.624;11.700;2024-01-30T02:01:20;41.78;;;24.33;;
63012;SDS011;62113;45.624;11.700;2024-01-30T02:03:46;45.78;;;24.88;;
63012;SDS011;62113;45.624;11.700;2024-01-30T02:06:13;42.40;;;25.00;;
63012;SDS011;62113;45.624;11.700;2024-01-30T02:08:39;44.83;;;24.45;;
63012;SDS011;62113;45.624;11.700;2024-01-30T02:11:05;48.38;;;25.52;;
63012;SDS011;62113;45.624;11.700;2024-01-30T02:13:31;37.05;;;23.98;;
63012;SDS011;62113;45.624;11.700;2024-01-30T02:15:56;41.90;;;25.92;;
63012;SDS011;62113;45.624;11.700;2024-01-30T02:18:22;46.22;;;25.35;;
63012;SDS011;62113;45.624;11.700;2024-01-30T02:20:48;38.28;;;25.48;;
63012;SDS011;62113;45.624;11.700;2024-01-30T02:23:15;42.15;;;26.25;;
63012;SDS011;62113;45.624;11.700;2024-01-30T02:28:12;47.88;;;26.58;;
63012;SDS011;62113;45.624;11.700;2024-01-30T02:30:39;55.63;;;27.02;;
63012;SDS011;62113;45.624;11.700;2024-01-30T02:33:05;49.72;;;27.38;;
63012;SDS011;62113;45.624;11.700;2024-01-30T02:35:30;44.15;;;26.70;;
63012;SDS011;62113;45.624;11.700;2024-01-30T02:37:56;53.28;;;28.00;;
63012;SDS011;62113;45.624;11.700;2024-01-30T02:40:22;49.45;;;27.83;;
63012;SDS011;62113;45.624;11.700;2024-01-30T02:42:47;52.53;;;27.75;;
63012;SDS011;62113;45.624;11.700;2024-01-30T02:45:13;50.92;;;29.90;;
63012;SDS011;62113;45.624;11.700;2024-01-30T02:47:39;51.22;;;27.20;;
63012;SDS011;62113;45.624;11.700;2024-01-30T02:50:05;49.50;;;28.60;;
63012;SDS011;62113;45.624;11.700;2024-01-30T02:52:31;55.65;;;28.88;;
63012;SDS011;62113;45.624;11.700;2024-01-30T02:54:57;47.17;;;26.83;;
63012;SDS011;62113;45.624;11.700;2024-01-30T02:57:23;55.97;;;30.52;;
63012;SDS011;62113;45.624;11.700;2024-01-30T02:59:49;54.13;;;29.35;;
63012;SDS011;62113;45.624;11.700;2024-01-30T03:02:14;50.17;;;28.95;;
63012;SDS011;62113;45.624;11.700;2024-01-30T03:04:43;55.45;;;29.65;;
63012;SDS011;62113;45.624;11.700;2024-01-30T03:07:08;57.10;;;29.33;;
63012;SDS011;62113;45.624;11.700;2024-01-30T03:09:34;55.60;;;29.63;;
63012;SDS011;62113;45.624;11.700;2024-01-30T03:12:01;52.08;;;28.25;;
63012;SDS011;62113;45.624;11.700;2024-01-30T03:14:27;52.50;;;28.25;;
63012;SDS011;62113;45.624;11.700;2024-01-30T03:16:52;49.55;;;25.80;;
63012;SDS011;62113;45.624;11.700;2024-01-30T03:19:18;51.70;;;26.75;;
63012;SDS011;62113;45.624;11.700;2024-01-30T03:21:43;45.97;;;25.27;;
63012;SDS011;62113;45.624;11.700;2024-01-30T03:24:09;51.22;;;27.73;;
63012;SDS011;62113;45.624;11.700;2024-01-30T03:26:35;47.42;;;27.98;;
63012;SDS011;62113;45.624;11.700;2024-01-30T03:29:00;48.30;;;27.75;;
63012;SDS011;62113;45.624;11.700;2024-01-30T03:31:26;49.72;;;26.67;;
63012;SDS011;62113;45.624;11.700;2024-01-30T03:33:52;50.45;;;27.42;;
63012;SDS011;62113;45.624;11.700;2024-01-30T03:36:17;50.97;;;27.00;;
63012;SDS011;62113;45.624;11.700;2024-01-30T03:38:43;48.15;;;27.25;;
63012;SDS011;62113;45.624;11.700;2024-01-30T03:41:09;48.00;;;26.40;;
63012;SDS011;62113;45.624;11.700;2024-01-30T03:43:35;51.60;;;26.52;;
63012;SDS011;62113;45.624;11.700;2024-01-30T03:46:01;46.60;;;26.30;;
63012;SDS011;62113;45.624;11.700;2024-01-30T03:48:28;49.45;;;27.00;;
63012;SDS011;62113;45.624;11.700;2024-01-30T03:50:54;44.97;;;24.60;;
63012;SDS011;62113;45.624;11.700;2024-01-30T03:53:19;46.45;;;25.00;;
63012;SDS011;62113;45.624;11.700;2024-01-30T03:55:45;48.72;;;26.35;;
63012;SDS011;62113;45.624;11.700;2024-01-30T03:58:11;47.17;;;25.05;;
63012;SDS011;62113;45.624;11.700;2024-01-30T04:00:36;46.60;;;24.30;;
63012;SDS011;62113;45.624;11.700;2024-01-30T04:03:02;43.58;;;24.25;;
63012;SDS011;62113;45.624;11.700;2024-01-30T04:05:28;44.72;;;24.25;;
63012;SDS011;62113;45.624;11.700;2024-01-30T04:07:54;50.05;;;24.70;;
63012;SDS011;62113;45.624;11.700;2024-01-30T04:10:19;43.40;;;25.83;;
63012;SDS011;62113;45.624;11.700;2024-01-30T04:12:45;46.97;;;23.75;;
63012;SDS011;62113;45.624;11.700;2024-01-30T04:15:10;50.42;;;23.20;;
63012;SDS011;62113;45.624;11.700;2024-01-30T04:17:36;45.38;;;24.42;;
63012;SDS011;62113;45.624;11.700;2024-01-30T04:20:02;47.20;;;25.13;;
63012;SDS011;62113;45.624;11.700;2024-01-30T04:22:28;49.42;;;24.13;;
63012;SDS011;62113;45.624;11.700;2024-01-30T04:24:53;48.60;;;24.65;;
63012;SDS011;62113;45.624;11.700;2024-01-30T04:27:19;44.00;;;23.88;;
63012;SDS011;62113;45.624;11.700;2024-01-30T04:29:44;47.83;;;24.73;;
63012;SDS011;62113;45.624;11.700;2024-01-30T04:32:10;44.15;;;23.35;;
63012;SDS011;62113;45.624;11.700;2024-01-30T04:34:36;45.42;;;23.38;;
63012;SDS011;62113;45.624;11.700;2024-01-30T04:37:02;45.55;;;25.58;;
63012;SDS011;62113;45.624;11.700;2024-01-30T04:39:28;39.67;;;22.58;;
63012;SDS011;62113;45.624;11.700;2024-01-30T04:41:53;46.85;;;23.77;;
63012;SDS011;62113;45.624;11.700;2024-01-30T04:44:19;42.55;;;23.83;;
63012;SDS011;62113;45.624;11.700;2024-01-30T04:46:45;41.72;;;23.98;;
63012;SDS011;62113;45.624;11.700;2024-01-30T04:49:10;41.47;;;22.98;;
63012;SDS011;62113;45.624;11.700;2024-01-30T04:51:36;46.60;;;23.90;;
63012;SDS011;62113;45.624;11.700;2024-01-30T04:54:01;36.17;;;20.52;;
63012;SDS011;62113;45.624;11.700;2024-01-30T04:56:27;49.58;;;23.45;;
63012;SDS011;62113;45.624;11.700;2024-01-30T04:58:53;39.42;;;21.50;;
63012;SDS011;62113;45.624;11.700;2024-01-30T05:01:18;44.85;;;23.02;;
63012;SDS011;62113;45.624;11.700;2024-01-30T05:03:44;40.25;;;21.65;;
63012;SDS011;62113;45.624;11.700;2024-01-30T05:06:10;40.15;;;21.63;;
63012;SDS011;62113;45.624;11.700;2024-01-30T05:08:35;44.92;;;22.70;;
63012;SDS011;62113;45.624;11.700;2024-01-30T05:11:05;37.38;;;21.92;;
63012;SDS011;62113;45.624;11.700;2024-01-30T05:13:31;43.20;;;22.40;;
63012;SDS011;62113;45.624;11.700;2024-01-30T05:15:57;40.05;;;23.02;;
63012;SDS011;62113;45.624;11.700;2024-01-30T05:18:22;47.28;;;21.90;;
63012;SDS011;62113;45.624;11.700;2024-01-30T05:20:49;34.67;;;20.75;;
63012;SDS011;62113;45.624;11.700;2024-01-30T05:23:15;37.20;;;20.83;;
63012;SDS011;62113;45.624;11.700;2024-01-30T05:25:41;42.63;;;21.45;;
63012;SDS011;62113;45.624;11.700;2024-01-30T05:28:07;39.28;;;21.73;;
63012;SDS011;62113;45.624;11.700;2024-01-30T05:30:32;32.10;;;20.00;;
63012;SDS011;62113;45.624;11.700;2024-01-30T05:32:58;40.72;;;23.05;;
63012;SDS011;62113;45.624;11.700;2024-01-30T05:35:23;40.25;;;22.73;;
63012;SDS011;62113;45.624;11.700;2024-01-30T05:37:49;42.90;;;22.33;;
63012;SDS011;62113;45.624;11.700;2024-01-30T05:40:15;39.22;;;21.67;;
63012;SDS011;62113;45.624;11.700;2024-01-30T05:42:41;39.08;;;22.52;;
63012;SDS011;62113;45.624;11.700;2024-01-30T05:45:07;43.90;;;22.50;;
63012;SDS011;62113;45.624;11.700;2024-01-30T05:47:33;40.30;;;21.97;;
63012;SDS011;62113;45.624;11.700;2024-01-30T05:49:59;39.28;;;20.80;;
63012;SDS011;62113;45.624;11.700;2024-01-30T05:52:25;48.65;;;23.40;;
63012;SDS011;62113;45.624;11.700;2024-01-30T05:54:50;44.35;;;21.73;;
63012;SDS011;62113;45.624;11.700;2024-01-30T05:57:16;36.80;;;22.02;;
63012;SDS011;62113;45.624;11.700;2024-01-30T05:59:42;38.40;;;21.00;;
63012;SDS011;62113;45.624;11.700;2024-01-30T06:02:10;41.22;;;23.23;;
63012;SDS011;62113;45.624;11.700;2024-01-30T06:07:01;35.20;;;20.67;;
63012;SDS011;62113;45.624;11.700;2024-01-30T06:09:27;38.53;;;20.95;;
63012;SDS011;62113;45.624;11.700;2024-01-30T06:11:54;41.00;;;21.20;;
63012;SDS011;62113;45.624;11.700;2024-01-30T06:14:19;41.42;;;22.77;;
63012;SDS011;62113;45.624;11.700;2024-01-30T06:16:45;35.88;;;20.67;;
63012;SDS011;62113;45.624;11.700;2024-01-30T06:19:11;38.03;;;22.33;;
63012;SDS011;62113;45.624;11.700;2024-01-30T06:21:36;38.80;;;21.95;;
63012;SDS011;62113;45.624;11.700;2024-01-30T06:24:03;41.72;;;21.98;;
63012;SDS011;62113;45.624;11.700;2024-01-30T06:26:29;43.08;;;21.67;;
63012;SDS011;62113;45.624;11.700;2024-01-30T06:28:55;41.80;;;21.20;;
63012;SDS011;62113;45.624;11.700;2024-01-30T06:31:20;59.90;;;22.45;;
63012;SDS011;62113;45.624;11.700;2024-01-30T06:33:49;39.92;;;21.92;;
63012;SDS011;62113;45.624;11.700;2024-01-30T06:36:15;38.38;;;21.05;;
63012;SDS011;62113;45.624;11.700;2024-01-30T06:38:41;40.60;;;21.77;;
63012;SDS011;62113;45.624;11.700;2024-01-30T06:41:07;33.45;;;20.25;;
63012;SDS011;62113;45.624;11.700;2024-01-30T06:43:32;43.97;;;20.30;;
63012;SDS011;62113;45.624;11.700;2024-01-30T06:45:58;36.65;;;21.23;;
63012;SDS011;62113;45.624;11.700;2024-01-30T06:48:24;44.40;;;21.00;;
63012;SDS011;62113;45.624;11.700;2024-01-30T06:50:51;36.20;;;19.75;;
63012;SDS011;62113;45.624;11.700;2024-01-30T06:53:18;35.25;;;20.38;;
63012;SDS011;62113;45.624;11.700;2024-01-30T06:55:44;37.85;;;19.63;;
63012;SDS011;62113;45.624;11.700;2024-01-30T06:58:10;35.70;;;20.15;;
63012;SDS011;62113;45.624;11.700;2024-01-30T07:00:35;36.45;;;19.55;;
63012;SDS011;62113;45.624;11.700;2024-01-30T07:03:01;35.10;;;18.77;;
63012;SDS011;62113;45.624;11.700;2024-01-30T07:05:27;35.20;;;19.90;;
63012;SDS011;62113;45.624;11.700;2024-01-30T07:07:52;30.70;;;17.48;;
63012;SDS011;62113;45.624;11.700;2024-01-30T07:10:18;33.60;;;19.70;;
63012;SDS011;62113;45.624;11.700;2024-01-30T07:12:44;30.77;;;18.35;;
63012;SDS011;62113;45.624;11.700;2024-01-30T07:15:10;31.92;;;20.08;;
63012;SDS011;62113;45.624;11.700;2024-01-30T07:17:35;36.35;;;20.92;;
63012;SDS011;62113;45.624;11.700;2024-01-30T07:20:01;33.30;;;19.23;;
63012;SDS011;62113;45.624;11.700;2024-01-30T07:22:30;33.00;;;17.80;;
63012;SDS011;62113;45.624;11.700;2024-01-30T07:24:56;36.20;;;18.10;;
63012;SDS011;62113;45.624;11.700;2024-01-30T07:27:21;23.58;;;15.30;;
63012;SDS011;62113;45.624;11.700;2024-01-30T07:29:47;22.77;;;15.32;;
63012;SDS011;62113;45.624;11.700;2024-01-30T07:32:13;21.52;;;15.02;;
63012;SDS011;62113;45.624;11.700;2024-01-30T07:34:38;21.38;;;14.02;;
63012;SDS011;62113;45.624;11.700;2024-01-30T07:37:04;21.17;;;13.93;;
63012;SDS011;62113;45.624;11.700;2024-01-30T07:39:29;20.48;;;13.73;;
63012;SDS011;62113;45.624;11.700;2024-01-30T07:41:55;20.60;;;14.75;;
63012;SDS011;62113;45.624;11.700;2024-01-30T07:44:21;24.73;;;14.75;;
63012;SDS011;62113;45.624;11.700;2024-01-30T07:46:47;28.20;;;14.48;;
63012;SDS011;62113;45.624;11.700;2024-01-30T07:49:13;18.85;;;13.13;;
63012;SDS011;62113;45.624;11.700;2024-01-30T07:51:39;19.33;;;13.50;;
63012;SDS011;62113;45.624;11.700;2024-01-30T07:54:14;19.35;;;13.43;;
63012;SDS011;62113;45.624;11.700;2024-01-30T07:56:39;21.58;;;13.63;;
63012;SDS011;62113;45.624;11.700;2024-01-30T07:59:05;20.90;;;14.25;;
63012;SDS011;62113;45.624;11.700;2024-01-30T08:01:34;21.92;;;14.50;;
63012;SDS011;62113;45.624;11.700;2024-01-30T08:04:00;23.63;;;14.43;;
63012;SDS011;62113;45.624;11.700;2024-01-30T08:06:25;24.50;;;14.90;;
63012;SDS011;62113;45.624;11.700;2024-01-30T08:08:51;22.42;;;14.95;;
63012;SDS011;62113;45.624;11.700;2024-01-30T08:11:19;20.45;;;14.15;;
63012;SDS011;62113;45.624;11.700;2024-01-30T08:16:11;23.27;;;13.33;;
63012;SDS011;62113;45.624;11.700;2024-01-30T08:18:37;24.05;;;14.98;;
63012;SDS011;62113;45.624;11.700;2024-01-30T08:21:02;27.50;;;15.00;;
63012;SDS011;62113;45.624;11.700;2024-01-30T08:23:28;25.52;;;14.30;;
63012;SDS011;62113;45.624;11.700;2024-01-30T08:25:53;20.27;;;14.07;;
63012;SDS011;62113;45.624;11.700;2024-01-30T08:28:19;24.63;;;15.07;;
63012;SDS011;62113;45.624;11.700;2024-01-30T08:30:45;21.55;;;14.80;;
63012;SDS011;62113;45.624;11.700;2024-01-30T08:33:10;25.02;;;14.48;;
63012;SDS011;62113;45.624;11.700;2024-01-30T08:35:36;20.42;;;13.85;;
63012;SDS011;62113;45.624;11.700;2024-01-30T08:38:01;22.15;;;14.93;;
63012;SDS011;62113;45.624;11.700;2024-01-30T08:40:28;23.08;;;14.27;;
63012;SDS011;62113;45.624;11.700;2024-01-30T08:42:54;23.15;;;13.48;;
63012;SDS011;62113;45.624;11.700;2024-01-30T08:45:20;22.95;;;14.23;;
63012;SDS011;62113;45.624;11.700;2024-01-30T08:47:46;25.38;;;14.70;;
63012;SDS011;62113;45.624;11.700;2024-01-30T08:50:11;23.92;;;13.75;;
63012;SDS011;62113;45.624;11.700;2024-01-30T08:52:37;22.63;;;14.40;;
63012;SDS011;62113;45.624;11.700;2024-01-30T08:55:02;21.15;;;14.95;;
63012;SDS011;62113;45.624;11.700;2024-01-30T08:57:29;23.45;;;15.25;;
63012;SDS011;62113;45.624;11.700;2024-01-30T08:59:55;22.30;;;15.50;;
63012;SDS011;62113;45.624;11.700;2024-01-30T09:02:21;18.30;;;13.40;;
63012;SDS011;62113;45.624;11.700;2024-01-30T09:04:46;24.58;;;13.80;;
63012;SDS011;62113;45.624;11.700;2024-01-30T09:07:12;23.20;;;14.70;;
63012;SDS011;62113;45.624;11.700;2024-01-30T09:09:38;22.45;;;15.27;;
63012;SDS011;62113;45.624;11.700;2024-01-30T09:12:08;20.27;;;14.05;;
63012;SDS011;62113;45.624;11.700;2024-01-30T09:14:36;30.90;;;15.82;;
63012;SDS011;62113;45.624;11.700;2024-01-30T09:17:04;24.27;;;15.25;;
63012;SDS011;62113;45.624;11.700;2024-01-30T09:19:30;32.33;;;14.77;;
63012;SDS011;62113;45.624;11.700;2024-01-30T09:21:55;27.60;;;16.08;;
63012;SDS011;62113;45.624;11.700;2024-01-30T09:24:21;22.75;;;15.50;;
63012;SDS011;62113;45.624;11.700;2024-01-30T09:26:47;31.17;;;14.40;;
63012;SDS011;62113;45.624;11.700;2024-01-30T09:29:12;27.30;;;15.38;;
63012;SDS011;62113;45.624;11.700;2024-01-30T09:31:38;30.00;;;15.13;;
63012;SDS011;62113;45.624;11.700;2024-01-30T09:34:04;21.75;;;14.95;;
63012;SDS011;62113;45.624;11.700;2024-01-30T09:36:29;25.17;;;13.68;;
63012;SDS011;62113;45.624;11.700;2024-01-30T09:38:55;28.30;;;13.43;;
63012;SDS011;62113;45.624;11.700;2024-01-30T09:41:20;25.03;;;13.20;;
63012;SDS011;62113;45.624;11.700;2024-01-30T09:43:49;29.98;;;18.60;;
63012;SDS011;62113;45.624;11.700;2024-01-30T09:46:16;24.23;;;15.70;;
63012;SDS011;62113;45.624;11.700;2024-01-30T09:48:48;18.85;;;12.55;;
63012;SDS011;62113;45.624;11.700;2024-01-30T09:51:15;20.70;;;13.30;;
63012;SDS011;62113;45.624;11.700;2024-01-30T09:53:42;21.40;;;12.90;;
63012;SDS011;62113;45.624;11.700;2024-01-30T09:56:08;22.63;;;13.75;;
63012;SDS011;62113;45.624;11.700;2024-01-30T09:58:34;20.70;;;13.90;;
63012;SDS011;62113;45.624;11.700;2024-01-30T10:01:00;23.67;;;14.43;;
63012;SDS011;62113;45.624;11.700;2024-01-30T10:03:25;29.37;;;14.00;;
63012;SDS011;62113;45.624;11.700;2024-01-30T10:05:52;28.75;;;14.63;;
63012;SDS011;62113;45.624;11.700;2024-01-30T10:08:18;22.38;;;14.32;;
63012;SDS011;62113;45.624;11.700;2024-01-30T10:10:47;19.83;;;14.18;;
63012;SDS011;62113;45.624;11.700;2024-01-30T10:13:14;21.90;;;14.90;;
63012;SDS011;62113;45.624;11.700;2024-01-30T10:15:41;25.92;;;14.65;;
63012;SDS011;62113;45.624;11.700;2024-01-30T10:18:07;42.65;;;15.35;;
63012;SDS011;62113;45.624;11.700;2024-01-30T10:20:35;30.38;;;15.43;;
63012;SDS011;62113;45.624;11.700;2024-01-30T10:23:01;31.27;;;14.57;;
63012;SDS011;62113;45.624;11.700;2024-01-30T10:25:27;29.58;;;16.17;;
63012;SDS011;62113;45.624;11.700;2024-01-30T10:27:53;27.13;;;15.30;;
63012;SDS011;62113;45.624;11.700;2024-01-30T10:30:22;22.15;;;15.45;;
63012;SDS011;62113;45.624;11.700;2024-01-30T10:32:48;21.83;;;15.50;;
63012;SDS011;62113;45.624;11.700;2024-01-30T10:35:14;22.02;;;15.50;;
63012;SDS011;62113;45.624;11.700;2024-01-30T10:37:42;25.63;;;16.25;;
63012;SDS011;62113;45.624;11.700;2024-01-30T10:40:09;22.65;;;14.80;;
63012;SDS011;62113;45.624;11.700;2024-01-30T10:42:37;20.65;;;14.38;;
63012;SDS011;62113;45.624;11.700;2024-01-30T10:45:09;21.52;;;15.20;;
63012;SDS011;62113;45.624;11.700;2024-01-30T10:47:56;31.15;;;15.82;;
63012;SDS011;62113;45.624;11.700;2024-01-30T10:50:25;18.17;;;13.25;;
63012;SDS011;62113;45.624;11.700;2024-01-30T10:52:52;35.33;;;14.48;;
63012;SDS011;62113;45.624;11.700;2024-01-30T10:55:18;23.13;;;14.63;;
63012;SDS011;62113;45.624;11.700;2024-01-30T10:57:44;25.08;;;14.77;;
63012;SDS011;62113;45.624;11.700;2024-01-30T11:00:10;24.77;;;14.77;;
63012;SDS011;62113;45.624;11.700;2024-01-30T11:02:41;24.25;;;15.35;;
63012;SDS011;62113;45.624;11.700;2024-01-30T11:05:09;21.48;;;13.73;;
63012;SDS011;62113;45.624;11.700;2024-01-30T11:07:34;21.53;;;14.73;;
63012;SDS011;62113;45.624;11.700;2024-01-30T11:10:03;21.77;;;14.60;;
63012;SDS011;62113;45.624;11.700;2024-01-30T11:12:30;21.65;;;14.57;;
63012;SDS011;62113;45.624;11.700;2024-01-30T11:15:03;26.70;;;13.65;;
63012;SDS011;62113;45.624;11.700;2024-01-30T11:20:22;18.67;;;13.93;;
63012;SDS011;62113;45.624;11.700;2024-01-30T11:25:19;28.83;;;13.95;;
63012;SDS011;62113;45.624;11.700;2024-01-30T11:27:46;18.17;;;12.57;;
63012;SDS011;62113;45.624;11.700;2024-01-30T11:30:24;20.00;;;13.65;;
63012;SDS011;62113;45.624;11.700;2024-01-30T11:35:34;20.33;;;13.40;;
63012;SDS011;62113;45.624;11.700;2024-01-30T11:38:00;25.42;;;13.48;;
63012;SDS011;62113;45.624;11.700;2024-01-30T11:40:30;23.35;;;13.32;;
63012;SDS011;62113;45.624;11.700;2024-01-30T11:42:58;20.17;;;13.25;;
63012;SDS011;62113;45.624;11.700;2024-01-30T11:45:24;21.83;;;13.95;;
63012;SDS011;62113;45.624;11.700;2024-01-30T11:47:51;20.55;;;12.98;;
63012;SDS011;62113;45.624;11.700;2024-01-30T11:50:17;22.42;;;14.05;;
63012;SDS011;62113;45.624;11.700;2024-01-30T11:52:43;22.70;;;13.20;;
63012;SDS011;62113;45.624;11.700;2024-01-30T11:55:09;21.50;;;13.63;;
63012;SDS011;62113;45.624;11.700;2024-01-30T11:57:35;26.42;;;14.05;;
63012;SDS011;62113;45.624;11.700;2024-01-30T12:00:04;19.58;;;14.05;;
63012;SDS011;62113;45.624;11.700;2024-01-30T12:02:38;20.52;;;13.07;;
63012;SDS011;62113;45.624;11.700;2024-01-30T12:05:04;25.17;;;13.88;;
63012;SDS011;62113;45.624;11.700;2024-01-30T12:07:34;20.52;;;14.63;;
63012;SDS011;62113;45.624;11.700;2024-01-30T12:10:00;20.90;;;14.83;;
63012;SDS011;62113;45.624;11.700;2024-01-30T12:12:26;24.67;;;15.68;;
63012;SDS011;62113;45.624;11.700;2024-01-30T12:14:53;24.00;;;16.17;;
63012;SDS011;62113;45.624;11.700;2024-01-30T12:20:07;27.35;;;15.80;;
63012;SDS011;62113;45.624;11.700;2024-01-30T12:22:37;24.40;;;16.15;;
63012;SDS011;62113;45.624;11.700;2024-01-30T12:25:04;21.55;;;15.55;;
63012;SDS011;62113;45.624;11.700;2024-01-30T12:27:33;29.05;;;17.40;;
63012;SDS011;62113;45.624;11.700;2024-01-30T12:29:58;24.98;;;15.88;;
63012;SDS011;62113;45.624;11.700;2024-01-30T12:32:24;31.23;;;18.37;;
63012;SDS011;62113;45.624;11.700;2024-01-30T12:34:50;34.38;;;17.17;;
63012;SDS011;62113;45.624;11.700;2024-01-30T12:37:19;26.45;;;15.85;;
63012;SDS011;62113;45.624;11.700;2024-01-30T12:39:47;28.80;;;17.25;;
63012;SDS011;62113;45.624;11.700;2024-01-30T12:42:13;29.30;;;16.95;;
63012;SDS011;62113;45.624;11.700;2024-01-30T12:44:39;32.33;;;17.67;;
63012;SDS011;62113;45.624;11.700;2024-01-30T12:47:05;26.75;;;16.13;;
63012;SDS011;62113;45.624;11.700;2024-01-30T12:49:33;26.55;;;16.10;;
63012;SDS011;62113;45.624;11.700;2024-01-30T12:51:59;27.55;;;16.52;;
63012;SDS011;62113;45.624;11.700;2024-01-30T12:54:24;28.15;;;16.90;;
63012;SDS011;62113;45.624;11.700;2024-01-30T12:56:50;27.83;;;16.60;;
63012;SDS011;62113;45.624;11.700;2024-01-30T12:59:15;33.75;;;16.98;;
63012;SDS011;62113;45.624;11.700;2024-01-30T13:01:41;28.07;;;16.37;;
63012;SDS011;62113;45.624;11.700;2024-01-30T13:04:07;29.57;;;17.30;;
63012;SDS011;62113;45.624;11.700;2024-01-30T13:06:32;29.03;;;17.17;;
63012;SDS011;62113;45.624;11.700;2024-01-30T13:08:58;29.30;;;17.27;;
63012;SDS011;62113;45.624;11.700;2024-01-30T13:11:24;30.77;;;17.37;;
63012;SDS011;62113;45.624;11.700;2024-01-30T13:13:50;27.10;;;17.05;;
63012;SDS011;62113;45.624;11.700;2024-01-30T13:16:16;32.45;;;16.83;;
63012;SDS011;62113;45.624;11.700;2024-01-30T13:18:42;32.33;;;17.40;;
63012;SDS011;62113;45.624;11.700;2024-01-30T13:21:09;31.85;;;17.58;;
63012;SDS011;62113;45.624;11.700;2024-01-30T13:23:34;27.53;;;17.57;;
63012;SDS011;62113;45.624;11.700;2024-01-30T13:26:00;31.90;;;18.13;;
63012;SDS011;62113;45.624;11.700;2024-01-30T13:28:26;28.90;;;18.07;;
63012;SDS011;62113;45.624;11.700;2024-01-30T13:30:51;29.25;;;18.30;;
63012;SDS011;62113;45.624;11.700;2024-01-30T13:33:17;31.75;;;18.55;;
63012;SDS011;62113;45.624;11.700;2024-01-30T13:35:43;35.17;;;16.60;;
63012;SDS011;62113;45.624;11.700;2024-01-30T13:38:08;31.05;;;18.25;;
63012;SDS011;62113;45.624;11.700;2024-01-30T13:40:35;31.58;;;18.00;;
63012;SDS011;62113;45.624;11.700;2024-01-30T13:43:01;31.50;;;17.77;;
63012;SDS011;62113;45.624;11.700;2024-01-30T13:45:26;31.77;;;18.80;;
63012;SDS011;62113;45.624;11.700;2024-01-30T13:47:52;34.72;;;19.60;;
63012;SDS011;62113;45.624;11.700;2024-01-30T13:50:18;32.80;;;18.30;;
63012;SDS011;62113;45.624;11.700;2024-01-30T13:52:43;31.60;;;18.77;;
63012;SDS011;62113;45.624;11.700;2024-01-30T13:55:09;31.85;;;18.45;;
63012;SDS011;62113;45.624;11.700;2024-01-30T13:57:35;32.38;;;19.13;;
63012;SDS011;62113;45.624;11.700;2024-01-30T14:00:04;29.50;;;19.25;;
63012;SDS011;62113;45.624;11.700;2024-01-30T14:02:34;30.48;;;19.42;;
63012;SDS011;62113;45.624;11.700;2024-01-30T14:04:59;36.40;;;19.23;;
63012;SDS011;62113;45.624;11.700;2024-01-30T14:07:25;35.60;;;20.50;;
63012;SDS011;62113;45.624;11.700;2024-01-30T14:09:50;31.73;;;19.38;;
63012;SDS011;62113;45.624;11.700;2024-01-30T14:12:16;32.85;;;20.35;;
63012;SDS011;62113;45.624;11.700;2024-01-30T14:14:42;39.97;;;20.80;;
63012;SDS011;62113;45.624;11.700;2024-01-30T14:17:07;35.17;;;20.07;;
63012;SDS011;62113;45.624;11.700;2024-01-30T14:19:34;37.25;;;20.77;;
63012;SDS011;62113;45.624;11.700;2024-01-30T14:22:00;39.50;;;20.75;;